createdAt,value
2022-11-27T00:01:43.546Z,80.26
2022-11-27T00:11:45.967Z,80.26
2022-11-27T00:21:48.225Z,79.85
2022-11-27T00:31:50.523Z,79.56
2022-11-27T00:41:52.673Z,79.60
2022-11-27T00:51:54.857Z,80.49
2022-11-27T01:01:57.084Z,80.53
2022-11-27T01:11:59.369Z,80.56
2022-11-27T01:22:01.527Z,80.68
2022-11-27T01:32:03.906Z,80.15
2022-11-27T01:42:06.132Z,80.55
2022-11-27T01:52:13.496Z,80.36
2022-11-27T02:02:16.096Z,80.11
2022-11-27T02:12:27.343Z,80.01
2022-11-27T02:22:32.228Z,80.08
2022-11-27T02:32:46.216Z,80.76
2022-11-27T02:43:02.240Z,80.60
2022-11-27T02:53:10.943Z,80.61
2022-11-27T03:03:17.673Z,81.30
2022-11-27T03:13:20.643Z,81.54
2022-11-27T03:23:22.811Z,82.00
2022-11-27T03:33:25.163Z,81.20
2022-11-27T03:43:34.080Z,79.80
2022-11-27T03:53:54.198Z,82.79
2022-11-27T04:03:56.505Z,82.92
2022-11-27T04:13:59.079Z,82.70
2022-11-27T04:24:01.241Z,82.40
2022-11-27T04:34:03.505Z,82.62
2022-11-27T04:44:05.917Z,80.87
2022-11-27T04:54:08.172Z,81.74
2022-11-27T05:04:10.364Z,82.01
2022-11-27T05:14:15.475Z,84.17
2022-11-27T05:24:19.205Z,84.06
2022-11-27T05:34:21.709Z,83.98
2022-11-27T05:44:23.901Z,83.16
2022-11-27T05:54:26.105Z,82.75
2022-11-27T06:04:28.265Z,82.92
2022-11-27T06:14:31.918Z,83.14
2022-11-27T06:24:34.182Z,83.39
2022-11-27T06:34:36.345Z,82.75
2022-11-27T06:44:38.734Z,82.92
2022-11-27T06:54:41.450Z,82.26
2022-11-27T07:04:43.771Z,82.39
2022-11-27T07:14:45.992Z,82.66
2022-11-27T07:24:48.205Z,82.80
2022-11-27T07:34:50.475Z,82.50
2022-11-27T07:44:52.674Z,81.78
2022-11-27T07:54:54.945Z,81.48
2022-11-27T08:04:57.192Z,79.47
2022-11-27T08:14:59.452Z,79.71
2022-11-27T08:25:01.739Z,78.50
2022-11-27T08:35:04.082Z,76.73
2022-11-27T08:45:06.923Z,76.95
2022-11-27T08:55:09.354Z,77.55
2022-11-27T09:05:11.546Z,78.19
2022-11-27T09:15:14.047Z,78.83
2022-11-27T09:25:16.312Z,79.02
2022-11-27T09:35:18.644Z,78.33
2022-11-27T09:45:22.560Z,78.10
2022-11-27T09:55:36.944Z,77.40
2022-11-27T10:06:05.086Z,75.84
2022-11-27T10:16:24.112Z,72.98
2022-11-27T10:26:37.292Z,74.20
2022-11-27T10:36:43.673Z,71.84
2022-11-27T10:46:46.597Z,71.88
2022-11-27T10:57:21.209Z,73.18
2022-11-27T11:07:27.150Z,72.06
2022-11-27T11:17:38.516Z,70.49
2022-11-27T11:27:43.787Z,71.23
2022-11-27T11:37:46.691Z,70.36
2022-11-27T11:47:52.245Z,70.68
2022-11-27T11:58:21.167Z,68.71
2022-11-27T12:08:51.705Z,67.84
2022-11-27T12:19:28.915Z,68.59
2022-11-27T12:29:59.888Z,68.64
2022-11-27T12:40:12.169Z,68.86
2022-11-27T12:50:40.892Z,69.58
2022-11-27T13:00:43.903Z,70.65
2022-11-27T13:11:06.899Z,71.98
2022-11-27T13:21:14.722Z,73.30
2022-11-27T13:31:28.176Z,74.12
2022-11-27T13:41:40.155Z,74.74
2022-11-27T13:51:42.754Z,75.63
2022-11-27T14:01:58.773Z,76.96
2022-11-27T14:12:01.076Z,77.90
2022-11-27T14:22:30.845Z,78.32
2022-11-27T14:32:35.556Z,78.35
2022-11-27T14:42:39.280Z,77.50
2022-11-27T14:52:43.928Z,77.67
2022-11-27T15:02:49.108Z,78.28
2022-11-27T15:12:52.439Z,78.71
2022-11-27T15:22:57.067Z,79.84
2022-11-27T15:32:59.262Z,80.16
2022-11-27T15:43:01.498Z,80.05
2022-11-27T15:53:03.757Z,80.59
2022-11-27T16:03:05.919Z,81.35
2022-11-27T16:13:08.385Z,81.20
2022-11-27T16:23:10.546Z,81.61
2022-11-27T16:33:12.738Z,82.92
2022-11-27T16:43:15.248Z,83.09
2022-11-27T16:53:17.486Z,82.90
2022-11-27T17:03:19.677Z,82.42
2022-11-27T17:13:24.470Z,82.98
2022-11-27T17:23:26.639Z,83.43
2022-11-27T17:33:28.996Z,83.26
2022-11-27T17:43:31.256Z,83.22
2022-11-27T17:53:33.865Z,84.01
2022-11-27T18:03:36.096Z,84.08
2022-11-27T18:13:38.525Z,84.86
2022-11-27T18:24:14.435Z,84.89
2022-11-27T18:34:05.677Z,84.82
2022-11-27T18:44:07.974Z,84.42
2022-11-27T18:54:10.188Z,84.85
2022-11-27T19:04:12.606Z,85.63
2022-11-27T19:14:14.856Z,85.33
2022-11-27T19:24:17.158Z,84.32
2022-11-27T19:34:19.458Z,84.30
2022-11-27T19:44:21.720Z,85.41
2022-11-27T19:54:24.066Z,85.11
2022-11-27T20:04:26.390Z,85.11
2022-11-27T20:14:29.884Z,85.07
2022-11-27T20:24:32.725Z,85.24
2022-11-27T20:34:35.108Z,84.86
2022-11-27T20:44:37.362Z,86.72
2022-11-27T20:54:39.629Z,85.32
2022-11-27T21:04:41.875Z,84.94
2022-11-27T21:14:44.545Z,85.30
2022-11-27T21:24:50.378Z,85.75
2022-11-27T21:40:09.994Z,84.76
2022-11-27T21:50:13.385Z,84.52
2022-11-27T22:00:15.928Z,84.52
2022-11-27T22:10:18.345Z,85.58
2022-11-27T22:20:20.500Z,85.24
2022-11-27T22:30:24.532Z,84.70
2022-11-27T22:40:26.730Z,84.39
2022-11-27T22:50:28.922Z,84.42
2022-11-27T23:00:31.143Z,83.83
2022-11-27T23:10:33.329Z,83.94
2022-11-27T23:20:40.270Z,85.91
2022-11-27T23:30:42.457Z,84.24
2022-11-27T23:40:44.646Z,85.16
2022-11-27T23:50:46.814Z,85.03
